createdAt,value
2022-09-23T00:00:32.618Z,3.38
2022-09-23T00:01:55.876Z,3.36
2022-09-23T00:03:00.100Z,3.34
2022-09-23T00:04:03.439Z,3.33
2022-09-23T00:05:07.432Z,3.31
2022-09-23T00:06:16.018Z,3.29
2022-09-23T00:07:21.977Z,3.28
2022-09-23T00:08:25.819Z,3.26
2022-09-23T00:09:29.015Z,3.24
2022-09-23T00:10:33.122Z,3.24
2022-09-23T00:11:36.367Z,3.22
2022-09-23T00:12:39.512Z,3.21
2022-09-23T00:13:45.099Z,3.20
2022-09-23T00:14:48.366Z,3.19
2022-09-23T00:15:52.394Z,3.18
2022-09-23T00:16:55.773Z,3.18
2022-09-23T00:17:59.003Z,3.18
2022-09-23T00:19:04.164Z,3.16
2022-09-23T00:20:09.460Z,3.16
2022-09-23T00:21:14.642Z,3.15
2022-09-23T00:22:18.619Z,3.14
2022-09-23T00:23:21.854Z,3.08
2022-09-23T00:24:25.050Z,3.11
2022-09-23T00:25:29.874Z,3.11
2022-09-23T00:26:33.112Z,3.12
2022-09-23T00:27:37.778Z,3.07
2022-09-23T00:28:41.790Z,3.01
2022-09-23T00:29:45.004Z,2.96
2022-09-23T00:30:54.205Z,2.90
2022-09-23T00:31:58.018Z,2.87
2022-09-23T00:33:01.550Z,2.85
2022-09-23T00:34:04.903Z,2.83
2022-09-23T00:35:09.168Z,2.88
2022-09-23T00:36:17.985Z,2.90
2022-09-23T00:37:21.577Z,2.92
2022-09-23T00:38:24.908Z,2.94
2022-09-23T00:39:28.095Z,2.95
2022-09-23T00:40:33.919Z,2.97
2022-09-23T00:41:37.438Z,2.97
2022-09-23T00:42:49.231Z,3.00
2022-09-23T00:43:58.693Z,2.99
2022-09-23T00:45:02.349Z,3.02
2022-09-23T00:46:08.468Z,3.03
2022-09-23T00:47:19.619Z,3.04
2022-09-23T00:48:22.905Z,3.02
2022-09-23T00:49:29.906Z,3.03
2022-09-23T00:50:38.258Z,3.03
2022-09-23T00:51:54.297Z,3.04
2022-09-23T00:53:01.531Z,3.04
2022-09-23T00:54:06.778Z,3.03
2022-09-23T00:55:18.282Z,3.02
2022-09-23T00:56:24.540Z,3.01
2022-09-23T00:57:30.808Z,3.00
2022-09-23T00:58:38.702Z,2.99
2022-09-23T00:59:42.461Z,2.98
2022-09-23T01:00:47.025Z,2.98
2022-09-23T01:01:54.983Z,2.97
2022-09-23T01:02:58.302Z,2.98
2022-09-23T01:04:01.667Z,2.97
2022-09-23T01:05:06.547Z,2.96
2022-09-23T01:06:10.796Z,2.94
2022-09-23T01:07:13.922Z,2.91
2022-09-23T01:08:17.773Z,2.87
2022-09-23T01:09:23.042Z,2.86
2022-09-23T01:10:32.092Z,2.85
2022-09-23T01:11:44.408Z,2.79
2022-09-23T01:12:58.702Z,2.83
2022-09-23T01:14:11.269Z,2.79
2022-09-23T01:15:33.672Z,2.77
2022-09-23T01:16:57.313Z,2.77
2022-09-23T01:18:21.322Z,2.78
2022-09-23T01:19:36.813Z,2.77
2022-09-23T01:20:40.057Z,2.78
2022-09-23T01:21:58.280Z,2.78
2022-09-23T01:23:22.353Z,2.78
2022-09-23T01:24:34.674Z,2.78
2022-09-23T01:26:05.405Z,2.78
2022-09-23T01:27:22.314Z,2.77
2022-09-23T01:28:55.211Z,2.76
2022-09-23T01:30:37.187Z,2.74
2022-09-23T01:31:55.709Z,2.73
2022-09-23T01:32:58.977Z,2.73
2022-09-23T01:34:13.599Z,2.71
2022-09-23T01:35:32.079Z,2.71
2022-09-23T01:36:51.897Z,2.70
2022-09-23T01:38:01.497Z,2.68
2022-09-23T01:39:18.997Z,2.67
2022-09-23T01:40:31.580Z,2.66
2022-09-23T01:41:44.067Z,2.65
2022-09-23T01:43:04.902Z,2.63
2022-09-23T01:44:16.122Z,2.63
2022-09-23T01:45:31.238Z,2.63
2022-09-23T01:46:55.317Z,2.62
2022-09-23T01:48:10.534Z,2.58
2022-09-23T01:49:57.200Z,2.58
2022-09-23T01:51:09.277Z,2.54
2022-09-23T01:52:25.945Z,2.52
2022-09-23T01:53:49.138Z,2.49
2022-09-23T01:55:35.051Z,2.47
2022-09-23T01:56:49.448Z,2.44
2022-09-23T01:58:07.682Z,2.42
2022-09-23T01:59:21.825Z,2.42
2022-09-23T02:00:27.833Z,2.40
2022-09-23T02:01:43.440Z,2.38
2022-09-23T02:02:53.581Z,2.35
2022-09-23T02:04:09.023Z,2.34
2022-09-23T02:05:42.259Z,2.31
2022-09-23T02:06:54.591Z,2.29
2022-09-23T02:08:02.199Z,2.29
2022-09-23T02:09:12.185Z,2.27
2022-09-23T02:10:42.295Z,2.28
2022-09-23T02:11:48.404Z,2.26
2022-09-23T02:13:00.312Z,2.25
2022-09-23T02:14:26.147Z,2.25
2022-09-23T02:15:35.414Z,2.21
2022-09-23T02:16:47.638Z,2.20
2022-09-23T02:18:05.182Z,2.19
2022-09-23T02:19:36.688Z,2.21
2022-09-23T02:20:40.313Z,2.18
2022-09-23T02:21:55.614Z,2.14
2022-09-23T02:23:07.787Z,2.13
2022-09-23T02:24:21.266Z,2.12
2022-09-23T02:25:35.688Z,2.11
2022-09-23T02:26:49.294Z,2.08
2022-09-23T02:28:02.343Z,2.12
2022-09-23T02:29:09.128Z,2.12
2022-09-23T02:30:20.427Z,2.12
2022-09-23T02:31:37.947Z,2.11
2022-09-23T02:32:47.219Z,2.08
2022-09-23T02:33:59.450Z,2.08
2022-09-23T02:35:37.372Z,2.06
2022-09-23T02:36:46.976Z,2.05
2022-09-23T02:38:11.287Z,2.04
2022-09-23T02:39:15.272Z,2.04
2022-09-23T02:40:32.339Z,2.03
2022-09-23T02:41:50.294Z,2.02
2022-09-23T02:43:09.283Z,2.02
2022-09-23T02:44:16.168Z,2.01
2022-09-23T02:45:19.667Z,2.01
2022-09-23T02:46:23.665Z,2.01
2022-09-23T02:47:32.487Z,2.01
2022-09-23T02:48:48.893Z,2.01
2022-09-23T02:49:53.404Z,2.00
2022-09-23T02:50:58.498Z,2.00
2022-09-23T02:52:04.973Z,2.00
2022-09-23T02:53:08.866Z,1.98
2022-09-23T02:54:16.974Z,1.99
2022-09-23T02:55:23.680Z,1.98
2022-09-23T02:56:26.873Z,1.98
2022-09-23T02:57:30.659Z,1.98
2022-09-23T02:58:34.536Z,1.98
2022-09-23T02:59:38.647Z,1.98
2022-09-23T03:00:52.039Z,1.99
2022-09-23T03:02:07.192Z,1.98
2022-09-23T03:03:19.529Z,1.96
2022-09-23T03:04:42.726Z,1.95
2022-09-23T03:05:57.814Z,1.93
2022-09-23T03:07:19.087Z,1.92
2022-09-23T03:08:26.031Z,1.90
2022-09-23T03:09:50.666Z,1.90
2022-09-23T03:10:53.824Z,1.89
2022-09-23T03:12:25.444Z,1.90
2022-09-23T03:13:59.592Z,1.87
2022-09-23T03:15:21.563Z,1.86
2022-09-23T03:16:36.546Z,1.82
2022-09-23T03:17:41.678Z,1.80
2022-09-23T03:19:20.440Z,1.79
2022-09-23T03:20:35.712Z,1.75
2022-09-23T03:21:49.317Z,1.73
2022-09-23T03:22:57.330Z,1.71
2022-09-23T03:24:05.983Z,1.70
2022-09-23T03:25:18.274Z,1.67
2022-09-23T03:26:30.916Z,1.67
2022-09-23T03:27:37.305Z,1.66
2022-09-23T03:28:44.618Z,1.66
2022-09-23T03:29:50.399Z,1.64
2022-09-23T03:30:56.227Z,1.61
2022-09-23T03:32:03.137Z,1.60
2022-09-23T03:33:12.271Z,1.60
2022-09-23T03:34:28.660Z,1.56
2022-09-23T03:35:55.719Z,1.52
2022-09-23T03:37:06.724Z,1.51
2022-09-23T03:38:17.535Z,1.51
2022-09-23T03:39:30.763Z,1.49
2022-09-23T03:40:42.097Z,1.49
2022-09-23T03:41:51.102Z,1.48
2022-09-23T03:42:57.665Z,1.47
2022-09-23T03:44:02.528Z,1.45
2022-09-23T03:45:10.000Z,1.48
2022-09-23T03:46:14.549Z,1.49
2022-09-23T03:47:18.812Z,1.48
2022-09-23T03:48:22.343Z,1.50
2022-09-23T03:49:33.498Z,1.51
2022-09-23T03:50:38.118Z,1.54
2022-09-23T03:51:44.499Z,1.51
2022-09-23T03:52:49.801Z,1.54
2022-09-23T03:53:52.979Z,1.56
2022-09-23T03:54:56.197Z,1.56
2022-09-23T03:56:00.956Z,1.60
2022-09-23T03:57:04.279Z,1.61
2022-09-23T03:58:08.329Z,1.62
2022-09-23T03:59:11.435Z,1.63
2022-09-23T04:00:16.200Z,1.64
2022-09-23T04:01:19.526Z,1.64
2022-09-23T04:02:25.331Z,1.65
2022-09-23T04:03:29.463Z,1.66
2022-09-23T04:04:34.354Z,1.66
2022-09-23T04:05:37.683Z,1.66
2022-09-23T04:06:41.325Z,1.65
2022-09-23T04:07:44.723Z,1.64
2022-09-23T04:08:55.726Z,1.63
2022-09-23T04:09:59.195Z,1.62
2022-09-23T04:11:03.841Z,1.61
2022-09-23T04:12:10.057Z,1.61
2022-09-23T04:13:13.289Z,1.61
2022-09-23T04:14:17.757Z,1.59
2022-09-23T04:15:21.908Z,1.59
2022-09-23T04:16:26.241Z,1.58
2022-09-23T04:17:29.874Z,1.57
2022-09-23T04:18:33.847Z,1.56
2022-09-23T04:19:37.806Z,1.49
2022-09-23T04:20:41.098Z,1.48
2022-09-23T04:21:45.087Z,1.47
2022-09-23T04:22:48.435Z,1.47
2022-09-23T04:23:51.668Z,1.48
2022-09-23T04:24:54.957Z,1.48
2022-09-23T04:25:58.121Z,1.48
2022-09-23T04:27:02.126Z,1.48
2022-09-23T04:28:07.401Z,1.48
2022-09-23T04:29:13.344Z,1.48
2022-09-23T04:30:16.976Z,1.48
2022-09-23T04:31:23.960Z,1.48
2022-09-23T04:32:27.181Z,1.48
2022-09-23T04:33:32.633Z,1.48
2022-09-23T04:34:36.074Z,1.48
2022-09-23T04:35:40.621Z,1.49
2022-09-23T04:36:50.809Z,1.50
2022-09-23T04:37:53.999Z,1.51
2022-09-23T04:38:57.629Z,1.51
2022-09-23T04:40:01.228Z,1.51
2022-09-23T04:41:04.652Z,1.51
2022-09-23T04:42:07.883Z,1.52
2022-09-23T04:43:13.539Z,1.52
2022-09-23T04:44:17.333Z,1.51
2022-09-23T04:45:20.729Z,1.51
2022-09-23T04:46:25.221Z,1.51
2022-09-23T04:47:28.603Z,1.50
2022-09-23T04:48:36.967Z,1.51
2022-09-23T04:49:40.911Z,1.48
2022-09-23T04:50:44.174Z,1.51
2022-09-23T04:51:47.969Z,1.51
2022-09-23T04:52:51.789Z,1.52
2022-09-23T04:53:57.595Z,1.52
2022-09-23T04:55:00.786Z,1.49
2022-09-23T04:56:06.604Z,1.51
2022-09-23T04:57:11.143Z,1.51
2022-09-23T04:58:15.595Z,1.50
2022-09-23T04:59:19.089Z,1.47
2022-09-23T05:00:24.551Z,1.48
2022-09-23T05:01:30.851Z,1.47
2022-09-23T05:02:39.768Z,1.47
2022-09-23T05:03:44.694Z,1.45
2022-09-23T05:04:48.609Z,1.45
2022-09-23T05:05:52.000Z,1.45
2022-09-23T05:06:58.394Z,1.45
2022-09-23T05:08:04.014Z,1.45
2022-09-23T05:09:08.539Z,1.46
2022-09-23T05:10:12.185Z,1.47
2022-09-23T05:11:15.513Z,1.45
2022-09-23T05:12:18.871Z,1.43
2022-09-23T05:13:24.571Z,1.45
2022-09-23T05:14:28.258Z,1.46
2022-09-23T05:15:31.690Z,1.47
2022-09-23T05:16:36.243Z,1.48
2022-09-23T05:17:39.383Z,1.47
2022-09-23T05:18:44.153Z,1.46
2022-09-23T05:19:47.291Z,1.44
2022-09-23T05:20:56.497Z,1.48
2022-09-23T05:21:59.713Z,1.49
2022-09-23T05:23:03.005Z,1.51
2022-09-23T05:24:06.342Z,1.51
2022-09-23T05:25:09.761Z,1.48
2022-09-23T05:26:14.019Z,1.47
2022-09-23T05:27:17.297Z,1.44
2022-09-23T05:28:21.499Z,1.44
2022-09-23T05:29:24.908Z,1.50
2022-09-23T05:30:28.056Z,1.53
2022-09-23T05:31:32.009Z,1.57
2022-09-23T05:32:36.127Z,1.60
2022-09-23T05:33:39.808Z,1.62
2022-09-23T05:34:43.281Z,1.66
2022-09-23T05:35:47.723Z,1.68
2022-09-23T05:36:51.023Z,1.68
2022-09-23T05:37:54.268Z,1.72
2022-09-23T05:38:57.619Z,1.76
2022-09-23T05:40:01.013Z,1.78
2022-09-23T05:41:07.632Z,1.82
2022-09-23T05:42:13.898Z,1.84
2022-09-23T05:43:17.276Z,1.89
2022-09-23T05:44:20.428Z,1.92
2022-09-23T05:45:26.841Z,1.94
2022-09-23T05:46:32.221Z,1.97
2022-09-23T05:47:35.785Z,2.00
2022-09-23T05:48:40.572Z,2.03
2022-09-23T05:49:59.251Z,2.05
2022-09-23T05:51:04.247Z,2.08
2022-09-23T05:52:07.507Z,2.12
2022-09-23T05:53:10.722Z,2.15
2022-09-23T05:54:14.179Z,2.19
2022-09-23T05:55:17.553Z,2.22
2022-09-23T05:56:23.723Z,2.25
2022-09-23T05:57:26.921Z,2.28
2022-09-23T05:58:30.773Z,2.29
2022-09-23T05:59:34.119Z,2.30
2022-09-23T06:00:40.120Z,2.31
2022-09-23T06:01:44.302Z,2.32
2022-09-23T06:02:49.101Z,2.33
2022-09-23T06:03:53.848Z,2.35
2022-09-23T06:04:57.133Z,2.31
2022-09-23T06:06:00.324Z,2.26
2022-09-23T06:07:03.875Z,2.23
2022-09-23T06:08:08.565Z,2.20
2022-09-23T06:09:14.217Z,2.22
2022-09-23T06:10:17.502Z,2.24
2022-09-23T06:11:21.690Z,2.23
2022-09-23T06:12:25.816Z,2.23
2022-09-23T06:13:29.209Z,2.24
2022-09-23T06:14:32.385Z,2.25
2022-09-23T06:15:39.051Z,2.27
2022-09-23T06:16:43.506Z,2.30
2022-09-23T06:17:50.469Z,2.34
2022-09-23T06:18:59.663Z,2.39
2022-09-23T06:20:04.990Z,2.41
2022-09-23T06:21:10.379Z,2.41
2022-09-23T06:22:17.038Z,2.41
2022-09-23T06:23:24.594Z,2.41
2022-09-23T06:24:31.664Z,2.40
2022-09-23T06:25:36.689Z,2.40
2022-09-23T06:26:40.698Z,2.42
2022-09-23T06:27:44.948Z,2.43
2022-09-23T06:28:48.474Z,2.44
2022-09-23T06:29:52.655Z,2.50
2022-09-23T06:31:15.861Z,2.53
2022-09-23T06:32:20.250Z,2.55
2022-09-23T06:33:35.152Z,2.60
2022-09-23T06:34:50.832Z,2.65
2022-09-23T06:36:00.251Z,2.72
2022-09-23T06:37:15.921Z,2.73
2022-09-23T06:38:22.738Z,2.83
2022-09-23T06:39:26.003Z,2.88
2022-09-23T06:40:29.378Z,2.94
2022-09-23T06:41:33.683Z,3.00
2022-09-23T06:42:44.240Z,3.05
2022-09-23T06:43:48.266Z,3.09
2022-09-23T06:44:51.697Z,3.15
2022-09-23T06:46:04.220Z,3.20
2022-09-23T06:47:07.640Z,3.25
2022-09-23T06:48:11.693Z,3.31
2022-09-23T06:49:17.156Z,3.36
2022-09-23T06:50:20.485Z,3.41
2022-09-23T06:51:24.947Z,3.45
2022-09-23T06:52:28.774Z,3.51
2022-09-23T06:53:33.352Z,3.55
2022-09-23T06:54:38.209Z,3.63
2022-09-23T06:55:41.556Z,3.94
2022-09-23T06:56:47.759Z,4.44
2022-09-23T06:57:51.285Z,5.02
2022-09-23T06:58:54.936Z,5.54
2022-09-23T07:00:02.064Z,6.02
2022-09-23T07:01:11.515Z,6.43
2022-09-23T07:02:14.798Z,6.96
2022-09-23T07:03:18.062Z,7.38
2022-09-23T07:04:22.188Z,7.80
2022-09-23T07:05:27.360Z,8.23
2022-09-23T07:06:30.620Z,8.64
2022-09-23T07:07:34.329Z,9.04
2022-09-23T07:08:37.894Z,9.43
2022-09-23T07:09:41.066Z,9.81
2022-09-23T07:10:51.491Z,10.17
2022-09-23T07:11:54.573Z,10.55
2022-09-23T07:13:02.275Z,10.84
2022-09-23T07:14:08.699Z,11.16
2022-09-23T07:15:12.097Z,11.50
2022-09-23T07:16:15.385Z,11.80
2022-09-23T07:17:18.613Z,12.07
2022-09-23T07:18:25.992Z,12.34
2022-09-23T07:19:29.718Z,12.52
2022-09-23T07:20:33.161Z,12.68
2022-09-23T07:21:37.033Z,12.93
2022-09-23T07:22:40.185Z,13.10
2022-09-23T07:23:46.212Z,13.27
2022-09-23T07:24:49.469Z,13.35
2022-09-23T07:25:52.866Z,13.55
2022-09-23T07:26:56.107Z,13.72
2022-09-23T07:27:59.310Z,14.03
2022-09-23T07:29:05.294Z,14.26
2022-09-23T07:30:17.088Z,14.51
2022-09-23T07:31:37.767Z,14.81
2022-09-23T07:32:48.556Z,15.10
2022-09-23T07:33:57.115Z,15.40
2022-09-23T07:35:00.412Z,15.67
2022-09-23T07:36:13.224Z,15.89
2022-09-23T07:37:18.353Z,16.09
2022-09-23T07:38:32.062Z,16.22
2022-09-23T07:39:36.919Z,16.36
2022-09-23T07:40:40.444Z,16.50
2022-09-23T07:41:44.558Z,16.45
2022-09-23T07:42:48.213Z,16.60
2022-09-23T07:43:52.864Z,16.76
2022-09-23T07:44:57.427Z,16.92
2022-09-23T07:46:04.098Z,17.05
2022-09-23T07:47:07.484Z,17.14
2022-09-23T07:48:11.137Z,17.24
2022-09-23T07:49:14.327Z,17.42
2022-09-23T07:50:19.296Z,17.47
2022-09-23T07:51:25.610Z,17.60
2022-09-23T07:52:28.715Z,17.75
2022-09-23T07:53:32.274Z,17.86
2022-09-23T07:54:35.813Z,18.02
2022-09-23T07:55:39.100Z,18.21
2022-09-23T07:56:43.304Z,18.39
2022-09-23T07:57:46.988Z,18.56
2022-09-23T07:59:03.970Z,18.73
2022-09-23T08:00:07.818Z,18.97
2022-09-23T08:01:14.808Z,19.09
2022-09-23T08:02:19.367Z,19.24
2022-09-23T08:03:23.015Z,19.42
2022-09-23T08:04:33.289Z,19.56
2022-09-23T08:05:37.743Z,19.60
2022-09-23T08:06:45.894Z,19.70
2022-09-23T08:07:49.673Z,19.86
2022-09-23T08:08:53.577Z,20.08
2022-09-23T08:09:56.909Z,20.13
2022-09-23T08:11:08.612Z,20.22
2022-09-23T08:12:16.797Z,20.45
2022-09-23T08:13:20.212Z,20.71
2022-09-23T08:14:23.753Z,20.84
2022-09-23T08:15:28.490Z,21.07
2022-09-23T08:16:32.002Z,21.11
2022-09-23T08:17:38.283Z,21.17
2022-09-23T08:18:45.094Z,21.17
2022-09-23T08:19:49.105Z,21.23
2022-09-23T08:20:52.852Z,21.15
2022-09-23T08:21:59.388Z,21.19
2022-09-23T08:23:02.559Z,21.11
2022-09-23T08:24:09.299Z,21.22
2022-09-23T08:25:14.830Z,21.41
2022-09-23T08:26:21.722Z,21.35
2022-09-23T08:27:25.509Z,21.35
2022-09-23T08:28:29.317Z,21.54
2022-09-23T08:29:32.731Z,21.65
2022-09-23T08:30:36.045Z,21.60
2022-09-23T08:31:39.437Z,21.59
2022-09-23T08:32:42.616Z,21.44
2022-09-23T08:33:45.868Z,21.36
2022-09-23T08:34:49.376Z,21.23
2022-09-23T08:35:53.677Z,21.17
2022-09-23T08:36:57.020Z,21.01
2022-09-23T08:38:00.237Z,20.97
2022-09-23T08:39:04.880Z,20.80
2022-09-23T08:40:08.759Z,20.81
2022-09-23T08:41:22.591Z,20.77
2022-09-23T08:42:32.614Z,20.73
2022-09-23T08:43:37.234Z,20.59
2022-09-23T08:44:54.554Z,20.58
2022-09-23T08:46:01.881Z,20.41
2022-09-23T08:47:13.543Z,20.30
2022-09-23T08:48:28.219Z,20.17
2022-09-23T08:49:39.596Z,19.86
2022-09-23T08:50:47.159Z,19.75
2022-09-23T08:51:55.130Z,19.59
2022-09-23T08:53:07.999Z,19.42
2022-09-23T08:54:12.934Z,19.35
2022-09-23T08:55:17.283Z,19.15
2022-09-23T08:56:23.633Z,19.22
2022-09-23T08:57:43.421Z,19.16
2022-09-23T08:59:18.766Z,19.20
2022-09-23T09:00:27.699Z,19.09
2022-09-23T09:01:52.160Z,19.08
2022-09-23T09:02:56.341Z,19.05
2022-09-23T09:04:14.686Z,19.14
2022-09-23T09:05:26.442Z,18.98
2022-09-23T09:07:03.575Z,18.93
2022-09-23T09:08:29.957Z,18.85
2022-09-23T09:09:40.231Z,18.85
2022-09-23T09:10:47.563Z,18.90
2022-09-23T09:11:58.267Z,19.03
2022-09-23T09:13:10.961Z,19.04
2022-09-23T09:14:27.515Z,19.03
2022-09-23T09:15:31.292Z,18.96
2022-09-23T09:17:08.218Z,19.02
2022-09-23T09:18:20.280Z,19.03
2022-09-23T09:19:52.297Z,19.04
2022-09-23T09:20:59.115Z,19.00
2022-09-23T09:22:12.132Z,19.18
2022-09-23T09:23:27.699Z,19.38
2022-09-23T09:24:40.485Z,19.31
2022-09-23T09:25:46.311Z,19.35
2022-09-23T09:26:49.721Z,19.34
2022-09-23T09:27:56.079Z,19.28
2022-09-23T09:29:31.239Z,19.31
2022-09-23T09:30:35.046Z,19.41
2022-09-23T09:31:46.437Z,19.41
2022-09-23T09:33:02.840Z,19.46
2022-09-23T09:34:17.034Z,19.58
2022-09-23T09:35:36.901Z,19.54
2022-09-23T09:36:58.131Z,19.53
2022-09-23T09:38:02.014Z,19.57
2022-09-23T09:39:09.077Z,19.48
2022-09-23T09:40:13.387Z,19.43
2022-09-23T09:41:18.443Z,19.51
2022-09-23T09:42:27.526Z,19.58
2022-09-23T09:43:32.506Z,19.58
2022-09-23T09:44:59.176Z,19.66
2022-09-23T09:46:21.986Z,19.67
2022-09-23T09:47:57.540Z,19.62
2022-09-23T09:49:08.475Z,19.68
2022-09-23T09:50:21.879Z,19.63
2022-09-23T09:51:29.585Z,19.58
2022-09-23T09:52:38.954Z,19.67
2022-09-23T09:53:42.312Z,19.68
2022-09-23T09:54:45.548Z,19.72
2022-09-23T09:56:18.583Z,19.76
2022-09-23T09:57:40.080Z,19.75
2022-09-23T09:58:51.163Z,19.74
2022-09-23T09:59:54.592Z,19.73
2022-09-23T10:00:59.133Z,19.73
2022-09-23T10:02:33.216Z,19.75
2022-09-23T10:03:44.137Z,19.80
2022-09-23T10:04:56.461Z,19.77
2022-09-23T10:05:59.933Z,19.72
2022-09-23T10:07:15.968Z,19.87
2022-09-23T10:08:27.039Z,19.92
2022-09-23T10:09:36.238Z,19.81
2022-09-23T10:10:51.679Z,19.93
2022-09-23T10:12:18.728Z,19.96
2022-09-23T10:13:26.560Z,20.10
2022-09-23T10:14:30.414Z,20.17
2022-09-23T10:15:44.870Z,20.15
2022-09-23T10:17:05.603Z,20.08
2022-09-23T10:18:25.076Z,20.08
2022-09-23T10:19:29.741Z,20.11
2022-09-23T10:20:41.170Z,20.28
2022-09-23T10:21:52.959Z,20.33
2022-09-23T10:22:59.157Z,20.30
2022-09-23T10:24:08.117Z,20.30
2022-09-23T10:25:24.868Z,20.16
2022-09-23T10:26:44.163Z,20.11
2022-09-23T10:27:47.547Z,20.19
2022-09-23T10:28:53.605Z,20.31
2022-09-23T10:29:59.399Z,20.43
2022-09-23T10:31:05.672Z,20.47
2022-09-23T10:32:25.793Z,20.45
2022-09-23T10:33:29.137Z,20.31
2022-09-23T10:34:35.191Z,20.31
2022-09-23T10:36:00.374Z,20.34
2022-09-23T10:37:42.743Z,20.53
2022-09-23T10:38:50.057Z,20.61
2022-09-23T10:40:15.072Z,20.71
2022-09-23T10:42:02.787Z,20.64
2022-09-23T10:43:56.637Z,20.71
2022-09-23T10:45:46.391Z,20.68
2022-09-23T10:47:14.914Z,20.67
2022-09-23T10:48:57.515Z,20.72
2022-09-23T10:50:43.327Z,20.82
2022-09-23T10:51:58.470Z,20.85
2022-09-23T10:53:29.612Z,20.82
2022-09-23T10:54:52.105Z,20.99
2022-09-23T10:56:18.531Z,21.20
2022-09-23T10:57:43.611Z,21.17
2022-09-23T10:59:05.015Z,21.16
2022-09-23T11:00:22.541Z,21.07
2022-09-23T11:01:42.944Z,20.98
2022-09-23T11:03:07.443Z,20.85
2022-09-23T11:04:16.791Z,20.84
2022-09-23T11:06:05.553Z,20.77
2022-09-23T11:07:22.142Z,20.80
2022-09-23T11:08:56.605Z,20.79
2022-09-23T11:10:44.889Z,20.89
2022-09-23T11:13:54.513Z,20.77
2022-09-23T11:15:31.461Z,20.79
2022-09-23T11:16:46.996Z,20.76
2022-09-23T11:18:36.328Z,20.82
2022-09-23T11:19:56.672Z,20.77
2022-09-23T11:21:07.423Z,20.93
2022-09-23T11:22:36.560Z,21.01
2022-09-23T11:24:14.703Z,20.89
2022-09-23T11:25:37.092Z,20.75
2022-09-23T11:27:12.839Z,20.74
2022-09-23T11:28:40.828Z,20.76
2022-09-23T11:30:03.607Z,20.81
2022-09-23T11:31:47.674Z,20.79
2022-09-23T11:33:15.969Z,20.87
2022-09-23T11:34:45.480Z,20.95
2022-09-23T11:35:59.055Z,21.00
2022-09-23T11:37:13.003Z,20.99
2022-09-23T11:38:36.145Z,21.12
2022-09-23T11:40:15.797Z,21.08
2022-09-23T11:41:27.361Z,21.10
2022-09-23T11:42:40.667Z,21.09
2022-09-23T11:43:48.247Z,21.05
2022-09-23T11:45:02.417Z,21.18
2022-09-23T11:46:23.733Z,21.25
2022-09-23T11:47:43.722Z,21.32
2022-09-23T11:48:54.605Z,21.33
2022-09-23T11:50:15.080Z,21.41
2022-09-23T11:51:27.655Z,21.37
2022-09-23T11:52:37.161Z,21.46
2022-09-23T11:53:55.517Z,21.58
2022-09-23T11:55:21.403Z,21.49
2022-09-23T11:56:37.326Z,21.32
2022-09-23T11:58:03.746Z,21.13
2022-09-23T11:59:25.215Z,21.17
2022-09-23T12:00:46.622Z,21.14
2022-09-23T12:02:16.070Z,21.22
2022-09-23T12:03:39.270Z,21.23
2022-09-23T12:04:58.641Z,21.12
2022-09-23T12:06:14.764Z,21.05
2022-09-23T12:07:28.737Z,21.15
2022-09-23T12:08:33.554Z,21.44
2022-09-23T12:10:06.535Z,21.51
2022-09-23T12:11:30.245Z,21.45
2022-09-23T12:13:19.349Z,21.33
2022-09-23T12:14:34.908Z,21.14
2022-09-23T12:16:06.086Z,21.14
2022-09-23T12:17:15.638Z,20.96
2022-09-23T12:18:43.135Z,20.79
2022-09-23T12:19:51.945Z,20.81
2022-09-23T12:21:32.739Z,20.79
2022-09-23T12:23:06.757Z,20.69
2022-09-23T12:24:37.929Z,20.71
2022-09-23T12:25:49.929Z,20.64
2022-09-23T12:26:59.663Z,20.78
2022-09-23T12:28:15.539Z,20.87
2022-09-23T12:29:19.469Z,20.83
2022-09-23T12:30:27.347Z,20.74
2022-09-23T12:31:40.332Z,20.63
2022-09-23T12:32:45.781Z,20.71
2022-09-23T12:33:52.514Z,20.70
2022-09-23T12:34:56.519Z,20.62
2022-09-23T12:36:18.091Z,20.60
2022-09-23T12:37:36.503Z,20.55
2022-09-23T12:39:07.620Z,20.54
2022-09-23T12:40:31.973Z,20.72
2022-09-23T12:41:39.127Z,20.88
2022-09-23T12:42:46.272Z,20.83
2022-09-23T12:44:08.420Z,20.82
2022-09-23T12:45:37.558Z,20.74
2022-09-23T12:46:45.604Z,20.71
2022-09-23T12:47:48.883Z,20.69
2022-09-23T12:48:58.323Z,20.76
2022-09-23T12:50:02.014Z,20.80
2022-09-23T12:51:06.894Z,20.77
2022-09-23T12:52:14.134Z,20.78
2022-09-23T12:53:35.661Z,20.76
2022-09-23T12:54:40.973Z,20.72
2022-09-23T12:55:47.183Z,20.67
2022-09-23T12:56:56.345Z,20.69
2022-09-23T12:57:59.504Z,20.59
2022-09-23T12:59:17.633Z,20.58
2022-09-23T13:00:23.146Z,20.70
2022-09-23T13:01:27.668Z,20.73
2022-09-23T13:02:36.708Z,20.73
2022-09-23T13:04:04.783Z,20.66
2022-09-23T13:05:26.668Z,20.71
2022-09-23T13:07:06.616Z,20.77
2022-09-23T13:08:18.520Z,20.72
2022-09-23T13:09:28.787Z,20.75
2022-09-23T13:10:39.874Z,20.78
2022-09-23T13:11:45.505Z,20.76
2022-09-23T13:12:49.221Z,20.63
2022-09-23T13:13:56.805Z,20.70
2022-09-23T13:15:06.374Z,20.63
2022-09-23T13:16:24.570Z,20.56
2022-09-23T13:17:37.765Z,20.49
2022-09-23T13:18:59.716Z,20.56
2022-09-23T13:20:27.295Z,20.58
2022-09-23T13:21:42.836Z,20.57
2022-09-23T13:22:49.278Z,20.58
2022-09-23T13:24:22.144Z,20.61
2022-09-23T13:25:28.846Z,20.64
2022-09-23T13:26:34.774Z,20.66
2022-09-23T13:27:47.801Z,20.62
2022-09-23T13:29:02.435Z,20.60
2022-09-23T13:30:14.815Z,20.70
2022-09-23T13:31:21.262Z,20.77
2022-09-23T13:32:51.926Z,20.86
2022-09-23T13:34:07.750Z,20.80
2022-09-23T13:35:16.882Z,20.73
2022-09-23T13:36:21.320Z,20.73
2022-09-23T13:37:47.980Z,20.68
2022-09-23T13:38:51.139Z,20.51
2022-09-23T13:40:07.732Z,20.49
2022-09-23T13:41:31.673Z,20.42
2022-09-23T13:42:38.511Z,20.39
2022-09-23T13:44:15.265Z,20.35
2022-09-23T13:45:23.921Z,20.31
2022-09-23T13:46:30.205Z,20.28
2022-09-23T13:47:36.264Z,20.21
2022-09-23T13:48:43.281Z,20.16
2022-09-23T13:49:48.299Z,20.22
2022-09-23T13:50:54.118Z,20.18
2022-09-23T13:51:57.849Z,20.25
2022-09-23T13:53:06.639Z,20.29
2022-09-23T13:54:51.854Z,20.34
2022-09-23T13:56:19.399Z,20.24
2022-09-23T13:57:28.321Z,20.23
2022-09-23T13:58:34.360Z,20.29
2022-09-23T13:59:41.367Z,20.30
2022-09-23T14:00:45.004Z,20.27
2022-09-23T14:01:49.133Z,20.22
2022-09-23T14:02:55.591Z,20.23
2022-09-23T14:03:59.256Z,20.17
2022-09-23T14:05:12.738Z,20.11
2022-09-23T14:06:16.905Z,20.07
2022-09-23T14:07:20.257Z,20.05
2022-09-23T14:08:24.674Z,20.09
2022-09-23T14:09:29.577Z,20.06
2022-09-23T14:10:34.076Z,20.00
2022-09-23T14:11:37.426Z,19.96
2022-09-23T14:12:40.714Z,19.90
2022-09-23T14:13:45.952Z,19.91
2022-09-23T14:14:52.011Z,19.88
2022-09-23T14:15:59.452Z,19.83
2022-09-23T14:17:04.061Z,19.79
2022-09-23T14:18:08.532Z,19.77
2022-09-23T14:19:20.676Z,19.81
2022-09-23T14:20:24.027Z,19.79
2022-09-23T14:21:39.805Z,19.75
2022-09-23T14:22:44.476Z,19.62
2022-09-23T14:23:47.800Z,19.66
2022-09-23T14:24:52.004Z,19.59
2022-09-23T14:25:55.984Z,19.50
2022-09-23T14:27:04.853Z,19.44
2022-09-23T14:28:17.578Z,19.37
2022-09-23T14:29:25.879Z,19.30
2022-09-23T14:30:29.694Z,19.28
2022-09-23T14:31:33.268Z,19.20
2022-09-23T14:32:36.947Z,19.14
2022-09-23T14:33:42.225Z,19.09
2022-09-23T14:34:52.747Z,19.00
2022-09-23T14:36:03.179Z,18.93
2022-09-23T14:37:51.384Z,18.94
2022-09-23T14:39:01.862Z,18.85
2022-09-23T14:40:11.288Z,18.89
2022-09-23T14:41:24.102Z,18.87
2022-09-23T14:42:28.019Z,18.91
2022-09-23T14:43:31.235Z,18.88
2022-09-23T14:44:35.827Z,18.85
2022-09-23T14:45:43.699Z,18.86
2022-09-23T14:46:56.800Z,18.86
2022-09-23T14:48:09.905Z,18.87
2022-09-23T14:49:16.361Z,18.83
2022-09-23T14:53:45.878Z,18.70
2022-09-23T14:54:51.128Z,18.68
2022-09-23T14:55:58.656Z,18.71
2022-09-23T14:57:17.255Z,18.70
2022-09-23T14:58:25.761Z,18.70
2022-09-23T14:59:36.193Z,18.67
2022-09-23T15:00:39.374Z,18.59
2022-09-23T15:01:42.600Z,18.57
2022-09-23T15:03:14.857Z,18.53
2022-09-23T15:04:31.188Z,18.48
2022-09-23T15:05:43.780Z,18.41
2022-09-23T15:06:52.332Z,18.37
2022-09-23T15:07:58.290Z,18.32
2022-09-23T15:09:01.681Z,18.20
2022-09-23T15:10:14.763Z,18.17
2022-09-23T15:11:18.424Z,18.15
2022-09-23T15:12:22.224Z,18.08
2022-09-23T15:13:37.027Z,17.99
2022-09-23T15:14:52.419Z,17.95
2022-09-23T15:15:57.017Z,17.85
2022-09-23T15:17:02.852Z,17.76
2022-09-23T15:18:20.261Z,17.68
2022-09-23T15:19:23.734Z,17.51
2022-09-23T15:20:27.577Z,17.56
2022-09-23T15:21:46.709Z,17.47
2022-09-23T15:22:54.426Z,17.39
2022-09-23T15:23:58.795Z,17.39
2022-09-23T15:25:28.506Z,17.39
2022-09-23T15:26:48.831Z,17.33
2022-09-23T15:28:04.399Z,17.30
2022-09-23T15:29:10.707Z,17.30
2022-09-23T15:30:19.119Z,17.30